Hauptseite
METAR-TAF:

METAR-TAF

Flughäfen :

Flughafen Vientiane

Vientiane, Laos

Breite: 17-57N, Länge: 102-34E, Höhe: 171 m

Beobachtung

Neuester Wetterbericht von vor 56 Minuten, um 05:00 UTC
Wind 4 kt aus Südost
Temperatur 31°C
Luftfeuchtigkeit 63%
Luftdruck 1014 hPa
Sichtweite 10 km oder mehr
Aufgelockert bewölkt in der Höhe von 2000 ft

METAR: VLVT 190500Z 14004KT 9999 SCT020 31/23 Q1014 NOSIG

Zeit: 12:56 (05:56 UTC)

Prognose

Neuester Wetterbericht von vor 56 Minuten, um 05:00 UTC
Gültige Prognose vom 19 um 06 UTC bis 20 um 06 UTC
Wind 4 kt aus West/Südwest
Sichtweite 10 km oder mehr
Leicht bewölkt in der Höhe von 2000 ft
Leicht bewölkt in der Höhe von 20000 ft
Zeitweise
vom 19 um 14 UTC bis 19 um 20 UTC
Sichtweite: 3000 m
Leicht bewölkt in der Höhe von 5000 ft
feuchter Dunst

TAF: VLVT 190500Z 1906/2006 24004KT 9999 FEW020 FEW200 TEMPO 1914/1920 3000 BR FEW050

Wetterbeobachtungen und Prognosen von mehr als 4000 Flughäfen (METAR und TAF Bericht).

Die verfügbaren Stationen werden durch gelbe und rote Markierungen auf der Karte dargestellt.

Führen Sie die Maus auf sie, um den Namen der Station zu sehen.

Darauf klicken, um die Beobachtung von Wetterbeobachtungen und Prognosen zu sehen.

Um die Karte zu ändern : klicken Sie auf den grünen Tasten mit einem schwarzen Kreuz Zum Vergrößern, auf den grünen Button mit einem Gedankenstrich zu verkleinern, oder auf die grünen Pfeile für benachbarte Karten.


METAR-TAF: